Aérodrome :
LOGIN :

S'inscrire | Disclaimer

   EN    FR    IT 

 










Légende :    VFR   VFR Marginal   IFR   IFR Intensif   IFR Très Intensif
Visi : 
Plafond : 
>= 8 km
>= 3000ft
5 à 8 km
1000 à 3000 ft
1500m à 5 km
500 à 1000 ft
800 à 1500m
200 à 500 ft
< 800m
< 200 ft
Symboles :   Orages  Brouillard  Fortes neiges  Fortes précipitations  Vent > 20 kt
SIGMETs :   Divers  Orages  Givrage  Turbulence  Onde Orograph.  Cendres Volcan.






- Altitude de l'aérodrome : 13 ft
- Code IATA : LYX


EGMD - Lydd

DERNIER METAR :
  • 251420Z 25013KT 9999 SCT023 09/06 Q0998

METARs EXPIRÉS :
  • 251350Z 24012KT 9999 FEW018 08/06 Q0999
  • 251320Z 24011KT 9999 FEW015 07/06 Q1000 RESHRA
  • 251250Z 23020KT 9999 -SHRA FEW022 SCT030 08/06 Q1000
  • 251220Z 25015KT 9999 FEW014 09/05 Q1001

TAF TAF EGMD
Valide du 25 à 15h jusqu'au 26 à 00h UTC


251359Z 2515/2524 25015KT 9999 SCT025
TEMPO 2515/2524 26018G28KT
PROB30
TEMPO 2515/2517 6000 SHRA SHGS
TEMPO 2517/2524 6000 SHRA SHGS
PROB40
TEMPO 2517/2519 3000 +SHRAGS BKN014CB
ATIS : +44 1797 322 422



MET'MAP, la Météo Aéronautique d'un coup d'oeil ! - Copyright ORBIFLY Décembre 2007 - Disclaimer

ORBIFLY MET'MAP TEAM :

Programmation & Développement : Alexandra Zaïnal
Sur une idée originale de : Baudouin d'Aumeries
Assistance à la programmation : Marc-Olivier Méhu
Soutien technique & logistique : Manuel Goepfert

Contact : metmap@orbifly.com




SOURCES & CREDITS :

   NOAA